createdAt,value
2022-09-17T00:00:56.229Z,13.03
2022-09-17T00:01:56.285Z,13.08
2022-09-17T00:02:56.260Z,13.11
2022-09-17T00:03:56.216Z,13.04
2022-09-17T00:04:56.249Z,13.05
2022-09-17T00:05:56.215Z,13.12
2022-09-17T00:06:56.235Z,13.11
2022-09-17T00:07:56.201Z,13.09
2022-09-17T00:08:56.210Z,13.12
2022-09-17T00:09:56.290Z,13.08
2022-09-17T00:10:56.194Z,13.09
2022-09-17T00:11:56.197Z,13.12
2022-09-17T00:12:56.209Z,13.13
2022-09-17T00:13:56.213Z,13.09
2022-09-17T00:14:56.185Z,13.16
2022-09-17T00:15:56.285Z,13.13
2022-09-17T00:17:01.203Z,13.08
2022-09-17T00:17:56.173Z,13.13
2022-09-17T00:18:56.173Z,13.11
2022-09-17T00:19:56.173Z,13.27
2022-09-17T00:20:56.147Z,13.18
2022-09-17T00:21:56.155Z,13.18
2022-09-17T00:22:56.182Z,13.19
2022-09-17T00:23:56.235Z,13.19
2022-09-17T00:24:56.175Z,13.20
2022-09-17T00:25:56.256Z,13.23
2022-09-17T00:26:56.163Z,13.28
2022-09-17T00:27:56.135Z,13.27
2022-09-17T00:28:56.131Z,13.19
2022-09-17T00:29:56.141Z,13.22
2022-09-17T00:30:56.155Z,13.23
2022-09-17T00:31:56.142Z,13.13
2022-09-17T00:32:56.130Z,13.22
2022-09-17T00:33:56.137Z,13.19
2022-09-17T00:34:56.114Z,13.25
2022-09-17T00:35:56.110Z,13.23
2022-09-17T00:36:56.114Z,13.25
2022-09-17T00:37:56.112Z,13.28
2022-09-17T00:38:56.220Z,13.22
2022-09-17T00:39:56.209Z,13.20
2022-09-17T00:40:56.098Z,13.15
2022-09-17T00:41:56.204Z,13.30
2022-09-17T00:42:56.089Z,13.27
2022-09-17T00:43:56.082Z,13.22
2022-09-17T00:44:56.100Z,13.20
2022-09-17T00:45:56.082Z,13.23
2022-09-17T00:46:56.141Z,13.19
2022-09-17T00:47:56.139Z,13.16
2022-09-17T00:48:56.075Z,13.12
2022-09-17T00:49:56.071Z,13.03
2022-09-17T00:50:56.112Z,13.18
2022-09-17T00:52:00.253Z,13.23
2022-09-17T00:52:56.060Z,13.16
2022-09-17T00:53:56.124Z,13.13
2022-09-17T00:54:56.055Z,13.15
2022-09-17T00:55:56.077Z,13.16
2022-09-17T00:56:56.057Z,13.08
2022-09-17T00:57:56.153Z,13.09
2022-09-17T00:58:56.035Z,13.16
2022-09-17T00:59:56.041Z,13.11
2022-09-17T01:00:56.095Z,13.09
2022-09-17T01:01:56.073Z,13.04
2022-09-17T01:02:56.088Z,13.08
2022-09-17T01:03:56.067Z,13.05
2022-09-17T01:04:56.032Z,13.05
2022-09-17T01:05:56.021Z,13.05
2022-09-17T01:06:56.011Z,13.03
2022-09-17T01:07:56.026Z,13.05
2022-09-17T01:08:56.083Z,13.05
2022-09-17T01:09:56.012Z,13.11
2022-09-17T01:10:56.000Z,13.12
2022-09-17T01:11:56.002Z,13.08
2022-09-17T01:12:55.997Z,13.15
2022-09-17T01:13:56.094Z,13.18
2022-09-17T01:14:56.004Z,13.13
2022-09-17T01:15:56.021Z,13.15
2022-09-17T01:16:55.992Z,13.18
2022-09-17T01:17:55.974Z,13.13
2022-09-17T01:18:55.978Z,13.11
2022-09-17T01:19:55.989Z,13.12
2022-09-17T01:20:55.965Z,13.18
2022-09-17T01:21:55.960Z,13.09
2022-09-17T01:22:55.952Z,13.18
2022-09-17T01:23:56.004Z,13.19
2022-09-17T01:24:55.967Z,13.27
2022-09-17T01:25:55.951Z,13.22
2022-09-17T01:26:55.957Z,13.22
2022-09-17T01:27:55.991Z,13.23
2022-09-17T01:28:55.959Z,13.13
2022-09-17T01:29:56.041Z,13.13
2022-09-17T01:30:55.956Z,13.16
2022-09-17T01:31:55.928Z,13.23
2022-09-17T01:32:55.943Z,13.20
2022-09-17T01:33:55.940Z,13.25
2022-09-17T01:34:55.932Z,13.23
2022-09-17T01:35:55.933Z,13.27
2022-09-17T01:36:55.929Z,13.33
2022-09-17T01:37:55.921Z,13.28
2022-09-17T01:38:55.978Z,13.27
2022-09-17T01:39:55.956Z,13.30
2022-09-17T01:40:55.923Z,13.27
2022-09-17T01:41:55.928Z,13.27
2022-09-17T01:42:55.899Z,13.25
2022-09-17T01:43:55.884Z,13.19
2022-09-17T01:44:55.934Z,13.20
2022-09-17T01:45:55.986Z,13.27
2022-09-17T01:46:55.929Z,13.25
2022-09-17T01:47:55.877Z,13.23
2022-09-17T01:48:55.871Z,13.19
2022-09-17T01:49:55.883Z,13.28
2022-09-17T01:50:55.883Z,13.25
2022-09-17T01:51:55.873Z,13.23
2022-09-17T01:52:55.873Z,13.30
2022-09-17T01:53:55.890Z,13.27
2022-09-17T01:54:55.856Z,13.30
2022-09-17T01:55:55.864Z,13.25
2022-09-17T01:56:55.861Z,13.20
2022-09-17T01:57:55.853Z,13.20
2022-09-17T01:58:55.854Z,13.20
2022-09-17T01:59:55.853Z,13.22
2022-09-17T02:00:55.941Z,13.20
2022-09-17T02:01:56.025Z,13.20
2022-09-17T02:02:55.837Z,13.31
2022-09-17T02:03:55.920Z,13.22
2022-09-17T02:04:55.828Z,13.33
2022-09-17T02:05:55.847Z,13.38
2022-09-17T02:06:55.816Z,13.31
2022-09-17T02:07:55.836Z,13.35
2022-09-17T02:08:55.819Z,13.30
2022-09-17T02:09:55.808Z,13.30
2022-09-17T02:10:55.806Z,13.33
2022-09-17T02:11:55.798Z,13.37
2022-09-17T02:12:55.803Z,13.35
2022-09-17T02:13:55.806Z,13.35
2022-09-17T02:14:55.794Z,13.38
2022-09-17T02:15:55.816Z,13.35
2022-09-17T02:16:55.787Z,13.39
2022-09-17T02:17:55.878Z,13.39
2022-09-17T02:18:55.827Z,13.38
2022-09-17T02:19:55.777Z,13.39
2022-09-17T02:20:55.787Z,13.38
2022-09-17T02:21:55.779Z,13.37
2022-09-17T02:22:55.780Z,13.41
2022-09-17T02:23:55.782Z,13.30
2022-09-17T02:24:55.755Z,13.35
2022-09-17T02:25:55.767Z,13.38
2022-09-17T02:26:55.755Z,13.41
2022-09-17T02:27:55.763Z,13.38
2022-09-17T02:28:55.752Z,13.31
2022-09-17T02:29:55.747Z,13.44
2022-09-17T02:30:55.808Z,13.41
2022-09-17T02:31:55.743Z,13.41
2022-09-17T02:32:55.747Z,13.37
2022-09-17T02:33:55.843Z,13.37
2022-09-17T02:34:55.726Z,13.41
2022-09-17T02:35:55.725Z,13.46
2022-09-17T02:36:55.728Z,13.49
2022-09-17T02:37:55.736Z,13.38
2022-09-17T02:38:55.714Z,13.41
2022-09-17T02:39:55.763Z,13.53
2022-09-17T02:40:55.707Z,13.41
2022-09-17T02:41:55.722Z,13.47
2022-09-17T02:42:55.717Z,13.38
2022-09-17T02:43:55.715Z,13.39
2022-09-17T02:44:55.723Z,13.44
2022-09-17T02:45:55.732Z,13.38
2022-09-17T02:46:55.717Z,13.44
2022-09-17T02:47:55.693Z,13.42
2022-09-17T02:48:55.699Z,13.53
2022-09-17T02:49:55.779Z,13.41
2022-09-17T02:50:55.688Z,13.33
2022-09-17T02:51:55.681Z,13.44
2022-09-17T02:52:55.701Z,13.52
2022-09-17T02:53:55.684Z,13.42
2022-09-17T02:54:55.691Z,13.42
2022-09-17T02:55:55.660Z,13.39
2022-09-17T02:56:55.661Z,13.47
2022-09-17T02:57:55.668Z,13.44
2022-09-17T02:58:55.684Z,13.35
2022-09-17T02:59:55.654Z,13.42
2022-09-17T03:00:55.714Z,13.47
2022-09-17T03:01:55.699Z,13.42
2022-09-17T03:02:55.646Z,13.33
2022-09-17T03:03:55.648Z,13.46
2022-09-17T03:04:55.647Z,13.37
2022-09-17T03:05:55.735Z,13.50
2022-09-17T03:06:55.633Z,13.57
2022-09-17T03:07:55.634Z,13.44
2022-09-17T03:08:55.661Z,13.47
2022-09-17T03:09:55.627Z,13.44
2022-09-17T03:10:55.622Z,13.49
2022-09-17T03:11:55.626Z,13.41
2022-09-17T03:12:55.622Z,13.46
2022-09-17T03:13:55.623Z,13.52
2022-09-17T03:14:55.610Z,13.47
2022-09-17T03:15:55.665Z,13.50
2022-09-17T03:16:55.687Z,13.52
2022-09-17T03:17:55.604Z,13.46
2022-09-17T03:18:55.600Z,13.49
2022-09-17T03:19:55.601Z,13.53
2022-09-17T03:20:55.590Z,13.57
2022-09-17T03:21:55.686Z,13.44
2022-09-17T03:22:55.579Z,13.54
2022-09-17T03:23:55.663Z,13.56
2022-09-17T03:24:55.585Z,13.49
2022-09-17T03:25:55.597Z,13.47
2022-09-17T03:26:55.576Z,13.50
2022-09-17T03:27:55.573Z,13.46
2022-09-17T03:28:55.575Z,13.44
2022-09-17T03:29:55.594Z,13.54
2022-09-17T03:30:55.650Z,13.54
2022-09-17T03:31:55.568Z,13.57
2022-09-17T03:32:55.564Z,13.54
2022-09-17T03:33:55.557Z,13.56
2022-09-17T03:34:55.559Z,13.60
2022-09-17T03:35:55.559Z,13.59
2022-09-17T03:36:55.545Z,13.54
2022-09-17T03:37:55.648Z,13.56
2022-09-17T03:38:55.585Z,13.56
2022-09-17T03:39:55.616Z,13.54
2022-09-17T03:40:55.556Z,13.57
2022-09-17T03:41:55.529Z,13.54
2022-09-17T03:42:55.532Z,13.60
2022-09-17T03:43:55.523Z,13.54
2022-09-17T03:44:55.534Z,13.60
2022-09-17T03:45:55.516Z,13.57
2022-09-17T03:46:55.598Z,13.59
2022-09-17T03:47:55.514Z,13.63
2022-09-17T03:48:55.612Z,13.59
2022-09-17T03:49:55.513Z,13.54
2022-09-17T03:50:56.062Z,13.59
2022-09-17T03:51:55.502Z,13.59
2022-09-17T03:52:55.501Z,13.57
2022-09-17T03:53:55.589Z,13.52
2022-09-17T03:54:55.513Z,13.62
2022-09-17T03:55:55.488Z,13.56
2022-09-17T03:56:55.482Z,13.57
2022-09-17T03:57:55.510Z,13.60
2022-09-17T03:58:55.485Z,13.59
2022-09-17T03:59:55.499Z,13.53
2022-09-17T04:00:55.490Z,13.52
2022-09-17T04:01:55.559Z,13.52
2022-09-17T04:02:55.566Z,13.49
2022-09-17T04:03:55.646Z,13.46
2022-09-17T04:04:55.474Z,13.47
2022-09-17T04:05:55.458Z,13.52
2022-09-17T04:06:55.452Z,13.46
2022-09-17T04:07:55.465Z,13.46
2022-09-17T04:08:55.454Z,13.47
2022-09-17T04:09:55.564Z,13.52
2022-09-17T04:10:55.449Z,13.44
2022-09-17T04:11:55.448Z,13.47
2022-09-17T04:12:55.444Z,13.53
2022-09-17T04:13:55.438Z,13.59
2022-09-17T04:14:55.438Z,13.50
2022-09-17T04:15:55.499Z,13.50
2022-09-17T04:16:55.425Z,13.52
2022-09-17T04:17:55.422Z,13.54
2022-09-17T04:18:55.421Z,13.54
2022-09-17T04:19:55.422Z,13.56
2022-09-17T04:20:55.424Z,13.54
2022-09-17T04:21:55.416Z,13.59
2022-09-17T04:22:55.411Z,13.59
2022-09-17T04:23:55.411Z,13.59
2022-09-17T04:24:55.408Z,13.56
2022-09-17T04:25:55.506Z,13.54
2022-09-17T04:26:55.393Z,13.63
2022-09-17T04:27:55.397Z,13.59
2022-09-17T04:28:55.481Z,13.60
2022-09-17T04:29:55.405Z,13.60
2022-09-17T04:30:55.452Z,13.62
2022-09-17T04:31:55.386Z,13.63
2022-09-17T04:32:55.401Z,13.60
2022-09-17T04:33:55.383Z,13.57
2022-09-17T04:34:55.423Z,13.56
2022-09-17T04:35:55.376Z,13.65
2022-09-17T04:36:55.369Z,13.63
2022-09-17T04:37:55.361Z,13.67
2022-09-17T04:38:55.365Z,13.59
2022-09-17T04:39:55.425Z,13.59
2022-09-17T04:40:55.383Z,13.54
2022-09-17T04:41:55.471Z,13.65
2022-09-17T04:42:55.370Z,13.60
2022-09-17T04:43:55.375Z,13.60
2022-09-17T04:44:55.352Z,13.60
2022-09-17T04:45:55.341Z,13.60
2022-09-17T04:46:55.404Z,13.60
2022-09-17T04:47:55.349Z,13.60
2022-09-17T04:48:55.330Z,13.59
2022-09-17T04:49:55.339Z,13.60
2022-09-17T04:50:55.345Z,13.59
2022-09-17T04:51:55.335Z,13.57
2022-09-17T04:52:55.331Z,13.60
2022-09-17T04:53:55.331Z,13.57
2022-09-17T04:54:55.336Z,13.54
2022-09-17T04:55:55.310Z,13.59
2022-09-17T04:56:55.316Z,13.60
2022-09-17T04:57:55.474Z,13.62
2022-09-17T04:58:55.302Z,13.54
2022-09-17T04:59:55.309Z,13.65
2022-09-17T05:00:55.356Z,13.63
2022-09-17T05:01:55.337Z,13.65
2022-09-17T05:02:55.321Z,13.62
2022-09-17T05:03:55.310Z,13.63
2022-09-17T05:04:55.355Z,13.60
2022-09-17T05:05:55.325Z,13.57
2022-09-17T05:06:55.330Z,13.59
2022-09-17T05:07:55.290Z,13.62
2022-09-17T05:08:55.278Z,13.70
2022-09-17T05:09:55.277Z,13.63
2022-09-17T05:10:55.280Z,13.62
2022-09-17T05:11:55.295Z,13.68
2022-09-17T05:12:55.279Z,13.62
2022-09-17T05:13:55.381Z,13.68
2022-09-17T05:14:55.286Z,13.71
2022-09-17T05:15:55.384Z,13.67
2022-09-17T05:16:55.263Z,13.65
2022-09-17T05:17:55.254Z,13.62
2022-09-17T05:18:55.256Z,13.71
2022-09-17T05:19:55.283Z,13.68
2022-09-17T05:20:55.252Z,13.68
2022-09-17T05:21:55.246Z,13.70
2022-09-17T05:22:55.262Z,13.57
2022-09-17T05:23:55.250Z,13.70
2022-09-17T05:24:55.250Z,13.68
2022-09-17T05:25:55.235Z,13.75
2022-09-17T05:26:55.235Z,13.68
2022-09-17T05:27:55.235Z,13.71
2022-09-17T05:28:55.358Z,13.74
2022-09-17T05:29:55.312Z,13.71
2022-09-17T05:30:55.266Z,13.71
2022-09-17T05:31:55.225Z,13.71
2022-09-17T05:32:55.224Z,13.68
2022-09-17T05:33:55.206Z,13.70
2022-09-17T05:34:55.210Z,13.71
2022-09-17T05:35:55.221Z,13.77
2022-09-17T05:36:55.201Z,13.72
2022-09-17T05:37:55.201Z,13.70
2022-09-17T05:38:55.193Z,13.71
2022-09-17T05:39:55.263Z,13.78
2022-09-17T05:40:55.186Z,13.77
2022-09-17T05:41:55.187Z,13.77
2022-09-17T05:42:55.173Z,13.71
2022-09-17T05:43:55.178Z,13.71
2022-09-17T05:44:55.179Z,13.71
2022-09-17T05:45:55.266Z,13.74
2022-09-17T05:46:55.234Z,13.78
2022-09-17T05:47:55.162Z,13.78
2022-09-17T05:48:55.175Z,13.81
2022-09-17T05:49:55.157Z,13.77
2022-09-17T05:50:55.165Z,13.85
2022-09-17T05:51:55.150Z,13.77
2022-09-17T05:52:55.157Z,13.83
2022-09-17T05:53:55.257Z,13.81
2022-09-17T05:54:55.150Z,13.78
2022-09-17T05:55:55.150Z,13.79
2022-09-17T05:56:55.136Z,13.79
2022-09-17T05:57:55.138Z,13.78
2022-09-17T05:58:55.140Z,13.79
2022-09-17T05:59:55.141Z,13.78
2022-09-17T06:00:55.127Z,13.77
2022-09-17T06:01:55.298Z,13.81
2022-09-17T06:02:55.190Z,13.75
2022-09-17T06:03:55.127Z,13.78
2022-09-17T06:04:55.141Z,13.78
2022-09-17T06:05:55.142Z,13.85
2022-09-17T06:06:55.125Z,13.75
2022-09-17T06:07:55.118Z,13.75
2022-09-17T06:08:55.111Z,13.83
2022-09-17T06:09:55.102Z,13.79
2022-09-17T06:10:58.995Z,13.81
2022-09-17T06:11:55.097Z,13.77
2022-09-17T06:12:55.105Z,13.75
2022-09-17T06:13:55.091Z,13.78
2022-09-17T06:14:55.085Z,13.74
2022-09-17T06:15:55.148Z,13.83
2022-09-17T06:16:55.092Z,13.85
2022-09-17T06:17:55.195Z,13.92
2022-09-17T06:18:55.086Z,13.86
2022-09-17T06:19:55.077Z,13.81
2022-09-17T06:20:55.088Z,13.86
2022-09-17T06:21:55.069Z,13.87
2022-09-17T06:22:55.074Z,13.89
2022-09-17T06:23:55.076Z,13.87
2022-09-17T06:24:55.064Z,13.93
2022-09-17T06:25:55.058Z,13.90
2022-09-17T06:26:55.066Z,13.90
2022-09-17T06:27:55.074Z,13.92
2022-09-17T06:28:55.056Z,13.90
2022-09-17T06:29:55.046Z,13.90
2022-09-17T06:30:55.042Z,13.92
2022-09-17T06:31:55.117Z,13.92
2022-09-17T06:32:55.050Z,13.92
2022-09-17T06:33:55.184Z,13.92
2022-09-17T06:34:55.035Z,13.87
2022-09-17T06:35:55.029Z,13.89
2022-09-17T06:36:55.034Z,13.90
2022-09-17T06:37:55.040Z,13.89
2022-09-17T06:38:55.063Z,13.90
2022-09-17T06:39:55.113Z,14.00
2022-09-17T06:40:55.038Z,14.03
2022-09-17T06:41:55.066Z,14.00
2022-09-17T06:42:55.041Z,13.90
2022-09-17T06:43:55.014Z,13.99
2022-09-17T06:44:55.024Z,14.04
2022-09-17T06:45:55.023Z,13.99
2022-09-17T06:46:55.088Z,14.11
2022-09-17T06:47:55.021Z,14.11
2022-09-17T06:48:55.029Z,14.08
2022-09-17T06:49:55.103Z,14.05
2022-09-17T06:50:55.028Z,14.05
2022-09-17T06:51:55.000Z,14.05
2022-09-17T06:52:55.001Z,14.00
2022-09-17T06:53:55.019Z,14.07
2022-09-17T06:54:54.990Z,14.05
2022-09-17T06:55:55.027Z,14.03
2022-09-17T06:56:55.003Z,14.03
2022-09-17T06:57:54.979Z,14.04
2022-09-17T06:58:54.984Z,14.03
2022-09-17T06:59:54.990Z,14.04
2022-09-17T07:00:55.078Z,14.04
2022-09-17T07:01:55.102Z,14.04
2022-09-17T07:02:55.017Z,13.95
2022-09-17T07:03:54.973Z,14.10
2022-09-17T07:04:54.978Z,13.99
2022-09-17T07:05:55.110Z,13.99
2022-09-17T07:06:54.956Z,14.03
2022-09-17T07:07:54.969Z,14.04
2022-09-17T07:08:54.976Z,13.96
2022-09-17T07:09:54.954Z,13.92
2022-09-17T07:10:54.971Z,13.96
2022-09-17T07:11:54.988Z,13.99
2022-09-17T07:12:54.971Z,13.89
2022-09-17T07:13:54.959Z,14.04
2022-09-17T07:14:54.955Z,13.97
2022-09-17T07:15:54.988Z,13.90
2022-09-17T07:16:54.956Z,14.03
2022-09-17T07:17:54.933Z,14.00
2022-09-17T07:18:54.923Z,13.93
2022-09-17T07:19:54.932Z,13.87
2022-09-17T07:20:54.947Z,13.93
2022-09-17T07:21:55.024Z,13.90
2022-09-17T07:22:54.937Z,13.95
2022-09-17T07:23:54.928Z,14.04
2022-09-17T07:24:54.925Z,13.90
2022-09-17T07:25:54.922Z,14.03
2022-09-17T07:26:54.947Z,14.07
2022-09-17T07:27:54.927Z,14.04
2022-09-17T07:28:54.925Z,14.15
2022-09-17T07:29:54.904Z,14.10
2022-09-17T07:30:54.940Z,14.18
2022-09-17T07:31:54.899Z,14.22
2022-09-17T07:32:54.903Z,14.23
2022-09-17T07:33:54.892Z,14.28
2022-09-17T07:34:54.882Z,14.22
2022-09-17T07:35:54.899Z,14.30
2022-09-17T07:36:54.975Z,14.28
2022-09-17T07:37:55.009Z,14.32
2022-09-17T07:38:54.924Z,14.33
2022-09-17T07:39:54.966Z,14.43
2022-09-17T07:40:54.892Z,14.40
2022-09-17T07:41:54.879Z,14.36
2022-09-17T07:42:54.887Z,14.36
2022-09-17T07:43:54.884Z,14.43
2022-09-17T07:44:57.471Z,14.35
2022-09-17T07:45:54.873Z,14.35
2022-09-17T07:46:54.940Z,14.37
2022-09-17T07:47:54.868Z,14.36
2022-09-17T07:48:54.864Z,14.35
2022-09-17T07:49:54.868Z,14.36
2022-09-17T07:50:54.876Z,14.43
2022-09-17T07:51:54.879Z,14.32
2022-09-17T07:52:54.855Z,14.35
2022-09-17T07:53:54.941Z,14.44
2022-09-17T07:54:54.867Z,14.33
2022-09-17T07:55:54.850Z,14.41
2022-09-17T07:56:54.856Z,14.43
2022-09-17T07:57:54.839Z,14.48
2022-09-17T07:58:54.852Z,14.36
2022-09-17T07:59:54.865Z,14.40
2022-09-17T08:00:54.846Z,14.40
2022-09-17T08:01:54.959Z,14.48
2022-09-17T08:02:54.991Z,14.37
2022-09-17T08:03:54.862Z,14.48
2022-09-17T08:04:54.895Z,14.55
2022-09-17T08:05:54.832Z,14.54
2022-09-17T08:06:54.856Z,14.53
2022-09-17T08:07:54.835Z,14.60
2022-09-17T08:08:54.840Z,14.51
2022-09-17T08:09:54.909Z,14.59
2022-09-17T08:10:54.842Z,14.50
2022-09-17T08:11:56.498Z,14.48
2022-09-17T08:12:54.824Z,14.60
2022-09-17T08:13:54.837Z,14.65
2022-09-17T08:14:54.803Z,14.77
2022-09-17T08:15:54.894Z,14.73
2022-09-17T08:16:54.898Z,14.66
2022-09-17T08:17:54.817Z,14.63
2022-09-17T08:18:54.813Z,14.70
2022-09-17T08:19:54.805Z,14.65
2022-09-17T08:20:54.815Z,14.63
2022-09-17T08:21:54.838Z,14.66
2022-09-17T08:22:54.805Z,14.69
2022-09-17T08:23:54.800Z,14.68
2022-09-17T08:24:54.791Z,14.72
2022-09-17T08:25:54.897Z,14.70
2022-09-17T08:26:54.815Z,14.70
2022-09-17T08:27:54.793Z,14.68
2022-09-17T08:28:54.802Z,14.81
2022-09-17T08:29:54.796Z,14.69
2022-09-17T08:30:54.911Z,14.73
2022-09-17T08:31:54.789Z,14.70
2022-09-17T08:32:54.833Z,14.65
2022-09-17T08:33:54.789Z,14.91
2022-09-17T08:34:58.077Z,15.06
2022-09-17T08:35:54.816Z,15.24
2022-09-17T08:36:54.781Z,15.14
2022-09-17T08:37:54.850Z,15.10
2022-09-17T08:38:54.779Z,15.11
2022-09-17T08:39:54.833Z,15.14
2022-09-17T08:40:54.788Z,15.09
2022-09-17T08:41:54.875Z,15.03
2022-09-17T08:42:54.778Z,15.19
2022-09-17T08:43:54.767Z,15.24
2022-09-17T08:44:58.536Z,15.29
2022-09-17T08:45:54.783Z,15.35
2022-09-17T08:46:54.828Z,15.29
2022-09-17T08:47:54.776Z,15.27
2022-09-17T08:48:54.825Z,15.25
2022-09-17T08:49:54.775Z,15.21
2022-09-17T08:51:00.642Z,15.28
2022-09-17T08:51:54.764Z,15.31
2022-09-17T08:52:54.770Z,15.44
2022-09-17T08:53:54.766Z,15.65
2022-09-17T08:54:54.765Z,15.77
2022-09-17T08:55:54.759Z,15.97
2022-09-17T08:56:54.770Z,16.10
2022-09-17T08:57:54.859Z,16.17
2022-09-17T08:58:54.777Z,16.24
2022-09-17T08:59:54.784Z,16.17
2022-09-17T09:00:54.748Z,16.15
2022-09-17T09:01:54.876Z,16.09
2022-09-17T09:02:54.802Z,15.95
2022-09-17T09:03:54.762Z,15.97
2022-09-17T09:04:54.753Z,15.91
2022-09-17T09:05:54.755Z,15.84
2022-09-17T09:06:54.753Z,15.70
2022-09-17T09:07:54.756Z,15.70
2022-09-17T09:08:54.753Z,15.67
2022-09-17T09:09:55.586Z,15.68
2022-09-17T09:10:54.748Z,15.82
2022-09-17T09:11:54.756Z,15.77
2022-09-17T09:12:54.746Z,15.80
2022-09-17T09:13:54.845Z,15.72
2022-09-17T09:14:54.753Z,15.64
2022-09-17T09:15:54.819Z,15.65
2022-09-17T09:16:54.743Z,15.57
2022-09-17T09:17:54.742Z,15.64
2022-09-17T09:18:54.750Z,15.72
2022-09-17T09:19:54.768Z,15.91
2022-09-17T09:20:54.758Z,16.02
2022-09-17T09:21:54.738Z,16.09
2022-09-17T09:22:54.790Z,16.26
2022-09-17T09:23:54.753Z,16.33
2022-09-17T09:24:54.741Z,16.47
2022-09-17T09:25:54.744Z,16.56
2022-09-17T09:26:58.457Z,16.58
2022-09-17T09:27:54.756Z,16.68
2022-09-17T09:28:54.741Z,16.65
2022-09-17T09:29:54.821Z,16.68
2022-09-17T09:30:54.745Z,16.61
2022-09-17T09:31:54.729Z,16.58
2022-09-17T09:32:54.736Z,16.57
2022-09-17T09:33:54.751Z,16.66
2022-09-17T09:34:54.798Z,16.72
2022-09-17T09:35:54.722Z,16.72
2022-09-17T09:36:54.726Z,16.75
2022-09-17T09:37:54.734Z,16.65
2022-09-17T09:38:54.725Z,16.66
2022-09-17T09:39:55.637Z,16.57
2022-09-17T09:40:54.737Z,16.61
2022-09-17T09:41:54.739Z,16.46
2022-09-17T09:42:54.736Z,16.39
2022-09-17T09:44:06.863Z,16.31
2022-09-17T09:44:54.729Z,16.21
2022-09-17T09:45:54.817Z,16.24
2022-09-17T09:46:54.863Z,16.13
2022-09-17T09:47:54.752Z,16.12
2022-09-17T09:48:54.728Z,16.10
2022-09-17T09:49:54.728Z,15.95
2022-09-17T09:51:06.095Z,15.95
2022-09-17T09:51:54.752Z,15.95
2022-09-17T09:52:54.753Z,15.90
2022-09-17T09:53:54.735Z,15.91
2022-09-17T09:54:54.742Z,15.83
2022-09-17T09:55:54.723Z,15.88
2022-09-17T09:56:54.717Z,15.76
2022-09-17T09:57:54.709Z,15.76
2022-09-17T09:58:54.734Z,15.79
2022-09-17T09:59:54.706Z,15.75
2022-09-17T10:00:54.779Z,15.59
2022-09-17T10:01:54.906Z,15.59
2022-09-17T10:02:55.655Z,15.58
2022-09-17T10:03:54.703Z,15.52
2022-09-17T10:04:54.712Z,15.52
2022-09-17T10:05:54.702Z,15.49
2022-09-17T10:06:54.721Z,15.46
2022-09-17T10:07:54.706Z,15.51
2022-09-17T10:08:54.714Z,15.49
2022-09-17T10:09:54.755Z,15.40
2022-09-17T10:10:54.735Z,15.54
2022-09-17T10:11:54.702Z,15.55
2022-09-17T10:12:54.731Z,15.55
2022-09-17T10:13:54.744Z,15.67
2022-09-17T10:14:54.713Z,15.65
2022-09-17T10:15:54.747Z,15.75
2022-09-17T10:16:54.679Z,15.75
2022-09-17T10:17:54.796Z,15.79
2022-09-17T10:18:54.685Z,15.82
2022-09-17T10:19:54.715Z,15.80
2022-09-17T10:20:54.695Z,15.90
2022-09-17T10:21:54.693Z,15.94
2022-09-17T10:22:54.688Z,16.01
2022-09-17T10:23:54.679Z,16.01
2022-09-17T10:24:54.709Z,16.12
2022-09-17T10:26:54.735Z,16.24
2022-09-17T10:27:54.698Z,16.23
2022-09-17T10:28:54.697Z,16.24
2022-09-17T10:29:54.680Z,16.26
2022-09-17T10:30:54.750Z,16.29
2022-09-17T10:31:54.729Z,16.17
2022-09-17T10:32:55.706Z,16.17
2022-09-17T10:33:54.777Z,16.17
2022-09-17T10:34:54.677Z,16.13
2022-09-17T10:35:54.679Z,16.04
2022-09-17T10:36:54.689Z,16.05
2022-09-17T10:37:54.686Z,16.02
2022-09-17T10:38:55.691Z,15.98
2022-09-17T10:39:54.713Z,15.95
2022-09-17T10:40:54.681Z,15.91
2022-09-17T10:41:54.679Z,15.84
2022-09-17T10:42:54.668Z,15.76
2022-09-17T10:43:54.728Z,15.67
2022-09-17T10:44:55.693Z,15.72
2022-09-17T10:45:54.695Z,15.61
2022-09-17T10:46:54.732Z,15.58
2022-09-17T10:47:54.672Z,15.61
2022-09-17T10:48:54.668Z,15.62
2022-09-17T10:49:54.765Z,15.61
2022-09-17T10:50:55.714Z,15.61
2022-09-17T10:51:54.715Z,15.55
2022-09-17T10:52:54.654Z,15.59
2022-09-17T10:53:54.656Z,15.61
2022-09-17T10:54:54.668Z,15.57
2022-09-17T10:55:54.671Z,15.59
2022-09-17T10:56:55.671Z,15.61
2022-09-17T10:57:54.662Z,15.61
2022-09-17T10:58:54.659Z,15.65
2022-09-17T10:59:54.656Z,15.70
2022-09-17T11:00:54.661Z,15.59
2022-09-17T11:01:54.760Z,15.58
2022-09-17T11:02:55.745Z,15.62
2022-09-17T11:03:54.652Z,15.58
2022-09-17T11:04:54.640Z,15.62
2022-09-17T11:05:54.778Z,15.61
2022-09-17T11:06:55.173Z,15.59
2022-09-17T11:07:54.652Z,15.58
2022-09-17T11:08:55.656Z,15.58
2022-09-17T11:09:54.648Z,15.58
2022-09-17T11:10:54.643Z,15.49
2022-09-17T11:11:54.656Z,15.49
2022-09-17T11:12:54.666Z,15.47
2022-09-17T11:13:54.641Z,15.49
2022-09-17T11:14:55.654Z,15.44
2022-09-17T11:15:54.684Z,15.40
2022-09-17T11:16:54.645Z,15.40
2022-09-17T11:17:54.668Z,15.29
2022-09-17T11:18:54.634Z,15.39
2022-09-17T11:19:54.633Z,15.37
2022-09-17T11:20:55.633Z,15.36
2022-09-17T11:21:54.714Z,15.36
2022-09-17T11:22:54.618Z,15.46
2022-09-17T11:23:54.618Z,15.49
2022-09-17T11:24:54.643Z,15.51
2022-09-17T11:25:59.693Z,15.51
2022-09-17T11:26:55.642Z,15.52
2022-09-17T11:27:54.632Z,15.44
2022-09-17T11:28:54.637Z,15.55
2022-09-17T11:29:54.640Z,15.61
2022-09-17T11:30:54.722Z,15.58
2022-09-17T11:31:54.675Z,15.64
2022-09-17T11:32:55.620Z,15.72
2022-09-17T11:33:54.634Z,15.73
2022-09-17T11:34:54.610Z,15.75
2022-09-17T11:35:54.613Z,15.76
2022-09-17T11:36:54.600Z,15.77
2022-09-17T11:37:59.606Z,15.92
2022-09-17T11:38:55.626Z,15.84
2022-09-17T11:39:54.663Z,15.75
2022-09-17T11:40:54.614Z,15.79
2022-09-17T11:41:54.612Z,15.73
2022-09-17T11:42:54.600Z,15.68
2022-09-17T11:43:54.619Z,15.75
2022-09-17T11:44:55.650Z,15.67
2022-09-17T11:45:54.619Z,15.59
2022-09-17T11:46:54.649Z,15.59
2022-09-17T11:47:54.632Z,15.58
2022-09-17T11:48:54.680Z,15.61
2022-09-17T11:49:54.594Z,15.59
2022-09-17T11:50:55.601Z,15.57
2022-09-17T11:51:55.233Z,15.58
2022-09-17T11:52:54.581Z,15.58
2022-09-17T11:53:54.686Z,15.65
2022-09-17T11:54:54.582Z,15.68
2022-09-17T11:55:54.584Z,15.77
2022-09-17T11:56:55.591Z,15.75
2022-09-17T11:57:54.587Z,15.77
2022-09-17T11:58:54.576Z,15.86
2022-09-17T11:59:54.583Z,15.86
2022-09-17T12:00:54.571Z,15.91
2022-09-17T12:01:54.630Z,15.82
2022-09-17T12:02:55.613Z,15.84
2022-09-17T12:03:54.566Z,15.95
2022-09-17T12:04:54.578Z,15.94
2022-09-17T12:05:54.600Z,15.98
2022-09-17T12:06:54.597Z,15.91
2022-09-17T12:07:54.660Z,16.04
2022-09-17T12:08:55.626Z,15.97
2022-09-17T12:09:54.670Z,16.02
2022-09-17T12:10:54.565Z,15.92
2022-09-17T12:11:54.561Z,15.97
2022-09-17T12:12:54.568Z,15.94
2022-09-17T12:13:54.575Z,15.88
2022-09-17T12:14:55.578Z,15.77
2022-09-17T12:15:54.601Z,15.76
2022-09-17T12:16:54.577Z,15.79
2022-09-17T12:18:08.742Z,15.91
2022-09-17T12:18:54.566Z,15.86
2022-09-17T12:19:54.570Z,15.88
2022-09-17T12:20:55.584Z,15.86
2022-09-17T12:21:54.597Z,15.83
2022-09-17T12:22:54.577Z,15.88
2022-09-17T12:23:54.553Z,15.77
2022-09-17T12:24:54.567Z,15.88
2022-09-17T12:25:54.634Z,15.77
2022-09-17T12:26:55.588Z,15.70
2022-09-17T12:27:54.565Z,15.72
2022-09-17T12:28:54.543Z,15.70
2022-09-17T12:29:58.292Z,15.62
2022-09-17T12:30:54.606Z,15.64
2022-09-17T12:31:54.541Z,15.61
2022-09-17T12:32:55.558Z,15.55
2022-09-17T12:33:54.561Z,15.57
2022-09-17T12:34:54.613Z,15.57
2022-09-17T12:36:09.830Z,15.55
2022-09-17T12:36:54.540Z,15.55
2022-09-17T12:37:54.536Z,15.59
2022-09-17T12:39:00.664Z,15.62
2022-09-17T12:39:54.569Z,15.61
2022-09-17T12:40:54.537Z,15.67
2022-09-17T12:41:54.622Z,15.80
2022-09-17T12:42:54.532Z,15.75
2022-09-17T12:43:54.532Z,15.83
2022-09-17T12:44:55.531Z,15.79
2022-09-17T12:45:54.533Z,15.84
2022-09-17T12:46:54.619Z,15.83
2022-09-17T12:47:54.537Z,15.82
2022-09-17T12:48:54.534Z,15.94
2022-09-17T12:49:54.533Z,15.88
2022-09-17T12:50:55.556Z,15.90
2022-09-17T12:51:54.531Z,15.90
2022-09-17T12:52:54.527Z,15.95
2022-09-17T12:53:54.523Z,15.98